Terminal Aerodrome Forecast
Issued by NWS New Orleans/Baton Rouge, LA

Home | Current Version | Previous Version | Text Only | Print | Product List | Glossary On
Versions: 1 2 3 4 5 6 7 8 9 10 11 12 13 14 15 16 17 18 19 20 21 22 23 24 25 26 27
750
FTUS44 KLIX 140522
TAFNEW
TAF
KNEW 140522Z 1406/1506 VRB04KT P6SM FEW250
     FM141100 10010KT P6SM BKN250
     FM141700 13010KT P6SM BKN250
     FM141900 14012KT P6SM BKN090
     FM150300 13010KT P6SM OVC030=

USA.gov is the U.S. government's official web portal to all federal, state and local government web resources and services.